Time;durP1;ratioP1;P1;durP2;ratioP2;P2;SDS_P1;SDS_P2;PMS_P1;PMS_P2;Temp;Humidity;BMP_temperature;BMP_pressure;BME280_temperature;BME280_humidity;BME280_pressure;Samples;Min_cycle;Max_cycle;Signal;HPM_P1;HPM_P2
2022/01/02 00:00:11;;;;;;;67.55;51.67;;;18.70;69.40;;;;;;5004868;27;93964;-66
2022/01/02 00:02:37;;;;;;;70.68;52.28;;;18.60;69.30;;;;;;5007992;27;90998;-66
2022/01/02 00:05:12;;;;;;;68.18;52.28;;;18.60;69.40;;;;;;5016529;27;91153;-67
2022/01/02 00:07:43;;;;;;;69.32;51.55;;;18.70;69.50;;;;;;5005039;27;90128;-67
2022/01/02 00:10:11;;;;;;;71.65;52.28;;;18.60;69.40;;;;;;5002975;27;89972;-67
2022/01/02 00:12:42;;;;;;;68.18;52.40;;;18.60;69.40;;;;;;5008900;27;90719;-67
2022/01/02 00:15:08;;;;;;;;;;;18.60;69.40;;;;;;5011444;27;89679;-67
2022/01/02 00:17:34;;;;;;;68.03;51.70;;;18.60;69.50;;;;;;5015652;27;90097;-66
2022/01/02 00:20:10;;;;;;;68.00;51.72;;;18.60;69.40;;;;;;5016000;27;91347;-67
2022/01/02 00:22:37;;;;;;;69.53;51.65;;;18.60;69.50;;;;;;5015859;27;89875;-67
2022/01/02 00:25:10;;;;;;;68.10;51.88;;;18.50;69.50;;;;;;5018991;27;90539;-67
2022/01/02 00:27:36;;;;;;;68.82;51.92;;;18.50;69.60;;;;;;5011709;27;95404;-67
2022/01/02 00:30:06;;;;;;;68.68;51.50;;;18.50;69.60;;;;;;5016584;27;89467;-67
2022/01/02 00:32:36;;;;;;;67.32;52.03;;;18.50;69.60;;;;;;5017010;27;90383;-67
2022/01/02 00:35:03;;;;;;;68.55;51.70;;;18.50;69.60;;;;;;4995201;27;90351;-67
2022/01/02 00:37:28;;;;;;;66.75;51.35;;;18.50;69.70;;;;;;5009288;27;91369;-67
2022/01/02 00:39:54;;;;;;;68.97;51.92;;;18.50;69.70;;;;;;5001616;27;90593;-67
2022/01/02 00:42:29;;;;;;;71.13;51.75;;;18.50;69.80;;;;;;4989070;27;90501;-67
2022/01/02 00:45:00;;;;;;;67.97;51.00;;;18.50;69.70;;;;;;5014383;27;89755;-66
2022/01/02 00:47:37;;;;;;;68.60;52.05;;;18.50;69.70;;;;;;5011896;27;89975;-66
2022/01/02 00:50:20;;;;;;;67.93;51.63;;;18.50;69.80;;;;;;5012021;27;97600;-66
2022/01/02 00:52:48;;;;;;;67.63;51.47;;;18.50;69.70;;;;;;5009018;27;92080;-67
2022/01/02 00:55:18;;;;;;;67.90;51.58;;;18.40;69.80;;;;;;4990565;28;91089;-67
2022/01/02 00:57:57;;;;;;;67.93;51.83;;;18.40;69.80;;;;;;5011234;27;89549;-67
2022/01/02 01:00:24;;;;;;;68.20;51.55;;;18.40;69.70;;;;;;5010221;27;90688;-67
2022/01/02 01:02:50;;;;;;;66.97;51.00;;;18.40;69.80;;;;;;5010367;27;89856;-67
2022/01/02 01:05:31;;;;;;;68.63;51.38;;;18.30;69.70;;;;;;5012385;27;95067;-67
2022/01/02 01:08:02;;;;;;;67.32;51.40;;;18.30;69.80;;;;;;5008476;27;92784;-67
2022/01/02 01:10:31;;;;;;;67.28;51.65;;;18.40;69.90;;;;;;5007338;27;89064;-67
2022/01/02 01:13:00;;;;;;;67.78;51.13;;;18.30;69.80;;;;;;5011466;27;90910;-67
2022/01/02 01:15:28;;;;;;;66.18;51.13;;;18.40;69.80;;;;;;5016109;27;90516;-67
2022/01/02 01:17:56;;;;;;;67.45;50.65;;;18.40;69.90;;;;;;5011567;27;90855;-67
2022/01/02 01:20:25;;;;;;;66.75;51.28;;;18.30;69.80;;;;;;5010548;27;90647;-67
2022/01/02 01:22:51;;;;;;;66.07;50.83;;;18.30;69.90;;;;;;5016096;27;89900;-67
2022/01/02 01:25:18;;;;;;;65.45;51.33;;;18.30;69.90;;;;;;5011560;27;90168;-65
2022/01/02 01:27:46;;;;;;;67.13;51.03;;;18.30;69.80;;;;;;5014899;28;90739;-67
2022/01/02 01:30:13;;;;;;;66.78;50.95;;;18.30;69.80;;;;;;5011534;27;90008;-67
2022/01/02 01:32:39;;;;;;;65.47;51.20;;;18.30;69.80;;;;;;5017867;27;89445;-67
2022/01/02 01:35:06;;;;;;;66.53;50.85;;;18.30;69.80;;;;;;5015089;27;89544;-67
2022/01/02 01:37:32;;;;;;;65.43;50.70;;;18.30;69.90;;;;;;5012626;27;91975;-67
2022/01/02 01:39:59;;;;;;;66.55;51.08;;;18.30;70.00;;;;;;5013056;27;89841;-67
2022/01/02 01:42:36;;;;;;;66.93;50.90;;;18.20;69.80;;;;;;5012580;27;91582;-67
2022/01/02 01:47:55;;;;;;;58.45;45.68;;;18.20;69.90;;;;;;451851;27;10101396;-67
2022/01/02 01:50:24;;;;;;;64.00;50.55;;;18.20;70.00;;;;;;5017099;27;91064;-67
2022/01/02 01:52:50;;;;;;;66.13;51.05;;;18.20;70.00;;;;;;5013322;27;91044;-67
2022/01/02 01:55:16;;;;;;;66.10;50.60;;;18.20;69.90;;;;;;5013997;27;90026;-67
2022/01/02 01:57:43;;;;;;;64.63;50.53;;;18.20;69.90;;;;;;5017681;27;91380;-68
2022/01/02 02:00:15;;;;;;;66.43;50.88;;;18.20;69.90;;;;;;5013547;27;89085;-66
2022/01/02 02:02:42;;;;;;;65.75;50.78;;;18.20;70.00;;;;;;5016896;27;89941;-66
2022/01/02 02:05:08;;;;;;;64.55;50.63;;;18.20;69.90;;;;;;5013834;27;89917;-66
2022/01/02 02:07:40;;;;;;;65.18;50.65;;;18.20;70.00;;;;;;5009092;27;91248;-66
2022/01/02 02:10:16;;;;;;;64.28;50.40;;;18.20;70.10;;;;;;5010337;27;91009;-67
2022/01/02 02:12:45;;;;;;;65.13;50.83;;;18.10;69.90;;;;;;5012299;27;91703;-67
2022/01/02 02:15:13;;;;;;;65.55;51.25;;;18.20;70.00;;;;;;5013047;27;90189;-67
2022/01/02 02:17:39;;;;;;;65.25;50.55;;;18.20;70.00;;;;;;5015212;27;89997;-67
2022/01/02 02:20:21;;;;;;;64.43;50.35;;;18.10;70.00;;;;;;5004688;27;90017;-66
2022/01/02 02:22:52;;;;;;;64.10;50.35;;;18.10;70.00;;;;;;5012921;27;90681;-67
2022/01/02 02:25:20;;;;;;;65.05;50.50;;;18.20;70.20;;;;;;5009102;27;90527;-66
2022/01/02 02:27:54;;;;;;;65.32;50.42;;;18.10;70.00;;;;;;5015177;27;91378;-67
2022/01/02 02:30:21;;;;;;;65.28;50.42;;;18.10;70.00;;;;;;4990829;27;89764;-67
2022/01/02 02:32:47;;;;;;;64.60;50.33;;;18.10;69.90;;;;;;5009692;27;90947;-66
2022/01/02 02:35:14;;;;;;;64.13;50.33;;;18.10;70.00;;;;;;5013965;27;89741;-67
2022/01/02 02:37:42;;;;;;;65.88;50.50;;;18.10;70.00;;;;;;5015716;27;91701;-66
2022/01/02 02:40:09;;;;;;;64.85;50.35;;;18.10;70.00;;;;;;5009381;27;90478;-67
2022/01/02 02:42:47;;;;;;;64.03;49.85;;;18.10;70.10;;;;;;5013349;27;90329;-67
2022/01/02 02:54:21;;;;;;;64.78;49.95;;;18.10;69.90;;;;;;5013523;27;89835;-67
2022/01/02 02:59:19;;;;;;;64.57;50.03;;;18.10;70.10;;;;;;5014072;27;91827;-68
2022/01/02 03:01:45;;;;;;;65.03;50.17;;;18.00;70.00;;;;;;5018445;27;89884;-67
2022/01/02 03:04:10;;;;;;;63.67;50.08;;;18.00;70.10;;;;;;5018244;27;91261;-67
2022/01/02 03:06:36;;;;;;;64.18;50.25;;;18.00;70.00;;;;;;5016621;27;90331;-67
2022/01/02 03:09:08;;;;;;;65.53;49.85;;;18.00;70.00;;;;;;5015227;27;90267;-67
2022/01/02 03:11:35;;;;;;;63.83;50.03;;;18.00;70.10;;;;;;5007417;28;90056;-67
2022/01/02 03:14:00;;;;;;;64.65;50.42;;;18.00;70.10;;;;;;5002113;27;90514;-67
2022/01/02 03:16:26;;;;;;;63.75;50.03;;;18.00;70.00;;;;;;5013105;27;90199;-67
2022/01/02 03:18:52;;;;;;;65.80;50.65;;;18.00;70.00;;;;;;4992224;27;91978;-66
2022/01/02 03:21:17;;;;;;;64.00;50.20;;;18.00;70.00;;;;;;5014826;27;90781;-67
2022/01/02 03:23:43;;;;;;;64.18;49.75;;;18.00;70.00;;;;;;4998987;27;91401;-67
2022/01/02 03:26:10;;;;;;;64.03;49.95;;;18.00;69.90;;;;;;5015404;27;91040;-67
2022/01/02 03:28:35;;;;;;;63.67;49.85;;;18.00;70.00;;;;;;5012848;27;90291;-67
2022/01/02 03:31:01;;;;;;;63.28;50.08;;;18.00;70.10;;;;;;5002362;27;89402;-66
2022/01/02 03:33:27;;;;;;;63.88;49.95;;;18.00;70.00;;;;;;5010466;27;89919;-67
2022/01/02 03:35:52;;;;;;;64.30;50.08;;;18.00;69.90;;;;;;4993249;27;92702;-66
2022/01/02 03:38:18;;;;;;;62.97;49.83;;;18.00;70.00;;;;;;5005674;27;91777;-66
2022/01/02 03:40:44;;;;;;;64.68;50.20;;;18.00;70.00;;;;;;4999363;27;90806;-67
2022/01/02 03:43:09;;;;;;;62.97;49.88;;;18.00;70.00;;;;;;5018769;27;90440;-67
2022/01/02 03:45:35;;;;;;;63.25;49.75;;;18.00;70.00;;;;;;4999798;28;91885;-67
2022/01/02 03:48:01;;;;;;;63.20;49.92;;;18.00;70.00;;;;;;5012477;27;92848;-67
2022/01/02 03:50:27;;;;;;;63.25;49.42;;;18.00;70.00;;;;;;5009442;27;89389;-67
2022/01/02 03:52:52;;;;;;;63.53;49.70;;;18.00;70.00;;;;;;5022099;27;96428;-68
2022/01/02 03:55:18;;;;;;;63.95;49.90;;;18.00;70.00;;;;;;5006843;27;90104;-67
2022/01/02 03:57:44;;;;;;;63.45;49.55;;;18.00;70.00;;;;;;5017148;27;90955;-66
2022/01/02 04:00:12;;;;;;;63.92;50.00;;;17.90;69.90;;;;;;5019835;27;91506;-67
2022/01/02 04:02:38;;;;;;;62.80;49.78;;;17.90;69.90;;;;;;5014283;27;89525;-67
2022/01/02 04:05:06;;;;;;;64.32;49.78;;;17.90;69.90;;;;;;5016038;27;89684;-66
2022/01/02 04:07:32;;;;;;;62.92;49.78;;;17.90;69.80;;;;;;5014295;27;91894;-67
2022/01/02 04:10:01;;;;;;;62.90;49.85;;;17.90;69.80;;;;;;4987689;27;90942;-67
2022/01/02 04:12:27;;;;;;;63.65;49.85;;;17.90;69.80;;;;;;5014260;27;91654;-66
2022/01/02 04:14:52;;;;;;;63.47;49.97;;;17.90;69.90;;;;;;5020143;27;89894;-67
2022/01/02 04:17:18;;;;;;;62.03;49.45;;;17.90;69.90;;;;;;5018304;27;89938;-67
2022/01/02 04:19:43;;;;;;;63.25;49.42;;;17.90;69.80;;;;;;5014771;27;95237;-66
2022/01/02 04:22:09;;;;;;;63.97;49.58;;;17.90;69.80;;;;;;5019060;27;89957;-66
2022/01/02 04:24:35;;;;;;;63.50;49.88;;;17.90;69.90;;;;;;5019651;27;90013;-66
2022/01/02 04:27:00;;;;;;;62.92;49.53;;;17.90;69.90;;;;;;5018313;27;89890;-66
2022/01/02 04:29:26;;;;;;;63.08;49.65;;;17.90;69.90;;;;;;5016536;27;89588;-66
2022/01/02 04:31:51;;;;;;;61.80;49.50;;;17.90;69.90;;;;;;5022365;27;92057;-67
2022/01/02 04:34:17;;;;;;;64.07;49.63;;;17.90;70.00;;;;;;5026359;27;90040;-66
2022/01/02 04:36:42;;;;;;;63.38;49.60;;;17.90;70.00;;;;;;5014794;27;92577;-67
2022/01/02 04:39:08;;;;;;;62.33;49.42;;;17.90;69.90;;;;;;5023876;27;90201;-66
2022/01/02 04:41:34;;;;;;;62.55;49.63;;;17.90;69.90;;;;;;5018190;27;90051;-67
2022/01/02 04:43:59;;;;;;;63.80;49.72;;;17.90;70.00;;;;;;5017124;27;89763;-66
2022/01/02 04:46:25;;;;;;;63.38;49.35;;;17.90;70.00;;;;;;5020021;27;90074;-67
2022/01/02 04:48:50;;;;;;;63.63;49.67;;;17.90;69.90;;;;;;5018416;27;89702;-67
2022/01/02 04:51:16;;;;;;;63.78;49.65;;;17.90;69.90;;;;;;5020409;27;89819;-67
2022/01/02 04:53:47;;;;;;;63.15;49.70;;;17.90;69.80;;;;;;5013695;27;90309;-67
2022/01/02 04:56:13;;;;;;;63.30;49.70;;;17.90;69.80;;;;;;5014507;27;90516;-67
2022/01/02 04:58:39;;;;;;;63.50;49.63;;;17.90;69.70;;;;;;5014905;27;89839;-66
2022/01/02 05:01:07;;;;;;;62.13;49.15;;;17.80;69.80;;;;;;5017373;27;90600;-66
2022/01/02 05:03:33;;;;;;;63.05;49.50;;;17.80;69.90;;;;;;5016233;27;90857;-67
2022/01/02 05:05:59;;;;;;;64.20;49.83;;;17.80;69.90;;;;;;5013955;28;89894;-67
2022/01/02 05:08:24;;;;;;;62.63;49.45;;;17.80;69.80;;;;;;5013541;27;89988;-67
2022/01/02 05:10:50;;;;;;;62.13;49.55;;;17.80;69.90;;;;;;5012626;27;89704;-67
2022/01/02 05:13:16;;;;;;;62.28;49.42;;;17.90;69.90;;;;;;5014574;27;89888;-67
2022/01/02 05:15:42;;;;;;;62.33;49.30;;;17.80;70.00;;;;;;5013739;27;90264;-67
2022/01/02 05:18:07;;;;;;;62.58;49.65;;;17.80;69.90;;;;;;5015615;27;90372;-68
2022/01/02 05:20:33;;;;;;;62.72;49.40;;;17.80;70.10;;;;;;5017830;27;91395;-67
2022/01/02 05:22:58;;;;;;;62.45;49.40;;;17.80;70.30;;;;;;5018003;27;90424;-67
2022/01/02 05:25:24;;;;;;;64.00;49.45;;;18.00;70.40;;;;;;5015582;27;92887;-67
2022/01/02 05:27:50;;;;;;;62.22;48.97;;;18.00;70.30;;;;;;5013768;27;89900;-67
2022/01/02 05:30:15;;;;;;;62.92;49.63;;;18.10;69.90;;;;;;5019947;27;89757;-67
2022/01/02 05:32:41;;;;;;;62.80;49.70;;;18.20;69.90;;;;;;5021239;27;90396;-67
2022/01/02 05:35:07;;;;;;;62.30;49.05;;;18.30;69.60;;;;;;5013369;27;90254;-67
2022/01/02 05:37:32;;;;;;;63.40;49.72;;;18.50;69.40;;;;;;5017996;27;89641;-67
2022/01/02 05:39:58;;;;;;;62.78;49.75;;;18.60;69.00;;;;;;5017712;27;90326;-67
2022/01/02 05:42:23;;;;;;;62.78;49.67;;;18.70;68.80;;;;;;5015820;27;89474;-67
2022/01/02 05:44:49;;;;;;;63.97;49.63;;;18.80;68.50;;;;;;5015736;27;90286;-67
2022/01/02 05:47:15;;;;;;;62.15;49.13;;;18.90;68.40;;;;;;5001479;28;89891;-67
2022/01/02 05:49:40;;;;;;;63.13;49.83;;;19.00;67.90;;;;;;5016652;27;92389;-67
2022/01/02 05:52:06;;;;;;;63.28;49.55;;;19.10;67.80;;;;;;5013542;27;91775;-67
2022/01/02 05:54:31;;;;;;;62.90;49.88;;;19.20;67.60;;;;;;5012058;27;90751;-67
2022/01/02 05:56:57;;;;;;;63.17;49.65;;;19.20;67.30;;;;;;5015041;27;89885;-67
2022/01/02 05:59:24;;;;;;;62.75;49.65;;;19.20;67.20;;;;;;5017520;27;90166;-66
2022/01/02 06:01:50;;;;;;;62.97;49.58;;;19.30;67.00;;;;;;5015932;27;90180;-67
2022/01/02 06:04:16;;;;;;;63.17;49.83;;;19.30;67.00;;;;;;5014850;27;92737;-67
2022/01/02 06:06:44;;;;;;;63.95;49.60;;;19.40;66.80;;;;;;5020901;27;90658;-68
2022/01/02 06:09:09;;;;;;;63.30;49.63;;;19.40;66.60;;;;;;5011392;27;89950;-68
2022/01/02 06:11:35;;;;;;;62.60;49.40;;;19.40;66.40;;;;;;4986899;27;91775;-67
2022/01/02 06:14:00;;;;;;;63.00;49.72;;;19.40;66.30;;;;;;5009917;27;90559;-67
2022/01/02 06:16:26;;;;;;;62.65;49.47;;;19.50;66.40;;;;;;5004117;27;90943;-67
2022/01/02 06:18:53;;;;;;;63.35;49.67;;;19.50;66.30;;;;;;5015106;27;89811;-67
2022/01/02 06:21:19;;;;;;;62.60;49.35;;;19.50;66.10;;;;;;5018278;27;93328;-67
2022/01/02 06:23:45;;;;;;;64.15;49.67;;;19.50;66.10;;;;;;5014678;27;89680;-67
2022/01/02 06:26:11;;;;;;;62.78;49.50;;;19.50;66.20;;;;;;5013398;27;90070;-67
2022/01/02 06:28:37;;;;;;;63.30;49.65;;;19.50;66.10;;;;;;5017127;27;89761;-67
2022/01/02 06:31:02;;;;;;;62.95;49.58;;;19.50;66.10;;;;;;5020604;27;88998;-67
2022/01/02 06:33:28;;;;;;;62.55;49.50;;;19.40;66.00;;;;;;5019976;27;89802;-67
2022/01/02 06:35:54;;;;;;;63.35;49.63;;;19.40;66.10;;;;;;5015417;27;90647;-67
2022/01/02 06:38:21;;;;;;;63.75;49.90;;;19.40;66.10;;;;;;5012932;27;92948;-67
2022/01/02 06:40:48;;;;;;;63.38;49.78;;;19.40;66.10;;;;;;5012849;27;90631;-67
2022/01/02 06:43:16;;;;;;;63.10;49.50;;;19.40;66.00;;;;;;5023086;27;89926;-67
2022/01/02 06:45:43;;;;;;;62.88;49.55;;;19.40;66.30;;;;;;5015883;27;90724;-67
2022/01/02 06:48:09;;;;;;;63.15;49.65;;;19.40;66.30;;;;;;4998614;28;90136;-67
2022/01/02 06:50:34;;;;;;;62.90;49.65;;;19.30;66.20;;;;;;5013836;27;90359;-67
2022/01/02 06:53:00;;;;;;;62.42;49.55;;;19.30;66.20;;;;;;5020626;28;89572;-67
2022/01/02 06:55:26;;;;;;;62.03;49.28;;;19.30;66.30;;;;;;5013582;27;88764;-67
2022/01/02 06:57:52;;;;;;;63.20;49.63;;;19.30;66.40;;;;;;5013213;27;89818;-67
2022/01/02 07:00:18;;;;;;;62.85;49.78;;;19.20;66.20;;;;;;5016354;27;91746;-67
2022/01/02 07:02:44;;;;;;;62.70;49.35;;;19.20;66.40;;;;;;5014699;27;91517;-67
2022/01/02 07:05:09;;;;;;;62.60;49.53;;;19.20;66.50;;;;;;5016692;27;90177;-67
2022/01/02 07:07:43;;;;;;;62.78;49.45;;;19.20;66.50;;;;;;5020087;27;89614;-67
2022/01/02 07:10:10;;;;;;;62.60;49.75;;;19.20;66.50;;;;;;5001387;27;91980;-67
2022/01/02 07:12:36;;;;;;;63.65;49.60;;;19.10;66.50;;;;;;5003598;27;90287;-67
2022/01/02 07:15:06;;;;;;;62.33;49.72;;;19.10;66.40;;;;;;5005256;27;91404;-67
2022/01/02 07:17:32;;;;;;;61.67;49.20;;;19.10;66.50;;;;;;5017602;27;89930;-67
2022/01/02 07:19:58;;;;;;;62.80;49.47;;;19.10;66.60;;;;;;5017279;27;89124;-67
2022/01/02 07:22:23;;;;;;;62.38;49.42;;;19.10;66.50;;;;;;4997888;28;91994;-67
2022/01/02 07:24:51;;;;;;;62.42;49.55;;;19.00;66.50;;;;;;5018460;27;90065;-67
2022/01/02 07:27:20;;;;;;;63.10;49.33;;;19.00;66.60;;;;;;5010813;27;92451;-67
2022/01/02 07:29:51;;;;;;;63.22;49.60;;;19.00;66.50;;;;;;5016794;27;91586;-67
2022/01/02 07:32:17;;;;;;;62.03;49.10;;;19.00;66.70;;;;;;5018707;27;91046;-67
2022/01/02 07:34:43;;;;;;;62.33;49.33;;;19.00;66.60;;;;;;5004429;27;90474;-67
2022/01/02 07:37:12;;;;;;;62.38;49.15;;;19.00;66.70;;;;;;4995722;27;91114;-67
2022/01/02 07:39:38;;;;;;;62.88;49.33;;;18.90;66.70;;;;;;5008000;27;90744;-67
2022/01/02 07:42:04;;;;;;;62.67;49.35;;;18.90;66.80;;;;;;5017819;27;90597;-67
2022/01/02 07:44:30;;;;;;;62.30;49.25;;;18.90;66.80;;;;;;5020981;27;89903;-65
2022/01/02 07:46:55;;;;;;;62.72;49.40;;;18.90;66.90;;;;;;5009134;27;89477;-66
2022/01/02 07:49:21;;;;;;;61.55;48.95;;;18.90;66.90;;;;;;5021685;27;90730;-66
2022/01/02 07:51:47;;;;;;;61.95;49.33;;;18.80;66.80;;;;;;5012905;27;90349;-66
2022/01/02 07:54:13;;;;;;;62.83;49.15;;;18.80;66.90;;;;;;5018716;27;94784;-66
2022/01/02 07:56:39;;;;;;;62.20;49.42;;;18.80;66.90;;;;;;4997999;27;90247;-65
2022/01/02 07:59:05;;;;;;;62.25;49.58;;;18.80;67.10;;;;;;5013446;27;91035;-69
2022/01/02 08:01:31;;;;;;;61.78;49.20;;;18.80;67.00;;;;;;5017523;27;90808;-66
2022/01/02 08:03:57;;;;;;;61.33;49.13;;;18.70;67.10;;;;;;4997632;27;90632;-66
2022/01/02 08:06:23;;;;;;;62.38;49.47;;;18.70;67.10;;;;;;5019578;27;90650;-67
2022/01/02 08:08:49;;;;;;;62.15;49.22;;;18.70;67.00;;;;;;5014212;27;92201;-66
2022/01/02 08:11:16;;;;;;;62.35;49.33;;;18.70;67.10;;;;;;5016356;27;90106;-66
2022/01/02 08:13:43;;;;;;;62.30;49.30;;;18.70;67.10;;;;;;5019556;27;90638;-66
2022/01/02 08:16:08;;;;;;;61.90;49.00;;;18.60;67.10;;;;;;5017842;27;90795;-66
2022/01/02 08:18:34;;;;;;;62.22;49.15;;;18.60;67.30;;;;;;5019270;27;96245;-66
2022/01/02 08:21:00;;;;;;;62.30;49.17;;;18.60;67.30;;;;;;5012556;27;89583;-66
2022/01/02 08:23:25;;;;;;;62.35;49.28;;;18.60;67.30;;;;;;5000793;28;89913;-65
2022/01/02 08:25:51;;;;;;;62.90;49.45;;;18.50;67.20;;;;;;5016523;27;89628;-65
2022/01/02 08:28:17;;;;;;;62.42;49.30;;;18.60;67.40;;;;;;5018079;27;91870;-68
2022/01/02 08:30:43;;;;;;;61.92;49.25;;;18.60;67.50;;;;;;5015502;27;89820;-67
2022/01/02 08:33:11;;;;;;;63.10;49.67;;;18.50;67.40;;;;;;5016694;27;88990;-67
2022/01/02 08:35:38;;;;;;;62.03;49.38;;;18.50;67.50;;;;;;5016704;27;90099;-65
2022/01/02 08:38:03;;;;;;;62.38;49.10;;;18.60;67.50;;;;;;5008479;27;90577;-65
2022/01/02 08:40:29;;;;;;;63.13;49.55;;;18.60;67.50;;;;;;5004657;27;92307;-65
2022/01/02 08:42:55;;;;;;;61.80;49.13;;;18.60;67.40;;;;;;5020353;27;90702;-66
2022/01/02 08:45:21;;;;;;;62.03;49.28;;;18.70;67.20;;;;;;5013520;27;89829;-66
2022/01/02 08:47:47;;;;;;;62.35;49.33;;;18.70;67.10;;;;;;5016491;27;90735;-66
2022/01/02 08:50:12;;;;;;;63.30;49.55;;;18.80;67.00;;;;;;5006525;27;91945;-67
2022/01/02 08:52:38;;;;;;;62.25;49.45;;;18.80;66.90;;;;;;5020196;27;90063;-66
2022/01/02 08:55:05;;;;;;;63.03;49.75;;;18.80;66.80;;;;;;5020151;27;89715;-66
2022/01/02 08:57:31;;;;;;;61.95;49.30;;;18.80;66.70;;;;;;5015894;27;89835;-67
2022/01/02 08:59:57;;;;;;;62.70;49.45;;;18.90;66.70;;;;;;5003014;27;90298;-66
2022/01/02 09:02:22;;;;;;;63.00;49.65;;;18.90;66.60;;;;;;5008879;27;89744;-66
2022/01/02 09:04:48;;;;;;;62.53;49.53;;;18.90;66.50;;;;;;5015219;27;92419;-66
2022/01/02 09:07:14;;;;;;;62.10;49.20;;;18.90;66.20;;;;;;5017280;27;90357;-67
2022/01/02 09:09:40;;;;;;;62.95;49.65;;;18.90;66.20;;;;;;5012814;27;89742;-66
2022/01/02 09:12:07;;;;;;;62.15;49.35;;;18.90;66.20;;;;;;5011946;27;89950;-66
2022/01/02 09:14:33;;;;;;;62.95;49.80;;;19.00;66.20;;;;;;5007093;27;89878;-66
2022/01/02 09:16:59;;;;;;;62.42;49.67;;;18.90;66.20;;;;;;5010864;27;90051;-66
2022/01/02 09:19:24;;;;;;;63.05;49.50;;;19.00;66.10;;;;;;5014879;27;89823;-66
2022/01/02 09:21:50;;;;;;;62.63;49.53;;;19.00;66.10;;;;;;5007415;27;89536;-65
2022/01/02 09:24:16;;;;;;;62.03;49.38;;;19.00;66.10;;;;;;5016991;27;90245;-64
2022/01/02 09:26:41;;;;;;;62.65;49.42;;;18.90;66.00;;;;;;5010413;27;90569;-66
2022/01/02 09:29:07;;;;;;;62.25;49.58;;;19.00;65.90;;;;;;5013952;27;95868;-66
2022/01/02 09:31:33;;;;;;;65.82;49.78;;;19.00;66.00;;;;;;5007338;27;90291;-66
2022/01/02 09:33:59;;;;;;;63.85;49.65;;;19.00;65.90;;;;;;5016665;27;92435;-66
2022/01/02 09:36:24;;;;;;;63.33;49.42;;;19.00;65.90;;;;;;5016044;27;90491;-66
2022/01/02 09:38:51;;;;;;;62.42;49.47;;;19.00;65.80;;;;;;5013372;27;90276;-67
2022/01/02 09:41:19;;;;;;;63.92;49.95;;;19.00;65.90;;;;;;5010950;27;90315;-66
2022/01/02 09:43:47;;;;;;;62.38;49.42;;;19.00;65.90;;;;;;4990193;28;89858;-66
2022/01/02 09:46:18;;;;;;;62.40;49.53;;;19.00;65.90;;;;;;5012677;27;90251;-66
2022/01/02 09:48:44;;;;;;;62.88;49.60;;;19.00;65.80;;;;;;5012782;27;90701;-66
2022/01/02 09:51:10;;;;;;;62.17;49.45;;;19.00;65.80;;;;;;5015483;27;92610;-66
2022/01/02 09:53:35;;;;;;;63.25;49.67;;;18.90;65.80;;;;;;5013059;27;90815;-67
2022/01/02 09:56:01;;;;;;;62.83;49.47;;;18.90;65.80;;;;;;4993259;28;90796;-67
2022/01/02 09:58:27;;;;;;;63.55;49.55;;;18.90;66.00;;;;;;5017291;27;89957;-66
2022/01/02 10:00:53;;;;;;;63.08;49.63;;;18.90;66.00;;;;;;5014338;27;90834;-66
2022/01/02 10:03:19;;;;;;;63.25;49.65;;;18.90;66.00;;;;;;5011781;27;89701;-66
2022/01/02 10:05:59;;;;;;;63.47;49.55;;;18.90;66.20;;;;;;5012011;28;90842;-65
2022/01/02 10:08:36;;;;;;;62.20;49.37;;;18.90;66.20;;;;;;5005884;27;98658;-66
2022/01/02 10:11:05;;;;;;;62.53;49.28;;;18.90;66.20;;;;;;5008909;27;89235;-67
2022/01/02 10:13:39;;;;;;;62.95;49.83;;;18.90;66.20;;;;;;5012721;27;89928;-71
2022/01/02 10:16:28;;;;;;;62.65;49.42;;;19.00;66.20;;;;;;5010781;27;91824;-69
2022/01/02 10:18:55;;;;;;;62.67;49.38;;;19.00;66.00;;;;;;5003240;27;94245;-64
2022/01/02 10:21:37;;;;;;;63.05;49.70;;;19.10;66.00;;;;;;5009510;27;90920;-67
2022/01/02 10:24:29;;;;;;;63.35;49.65;;;19.20;65.90;;;;;;5002231;27;90655;-66
2022/01/02 10:27:10;;;;;;;63.50;49.80;;;19.20;65.70;;;;;;5008888;27;91066;-65
2022/01/02 10:29:55;;;;;;;65.25;49.95;;;19.20;65.50;;;;;;5005341;27;90765;-67
2022/01/02 10:32:43;;;;;;;63.05;49.65;;;19.30;65.40;;;;;;5017136;27;89539;-67
2022/01/02 10:35:12;;;;;;;63.85;49.85;;;19.30;65.30;;;;;;5012948;27;89989;-67
2022/01/02 10:37:40;;;;;;;66.80;49.90;;;19.30;65.30;;;;;;5014015;27;90624;-64
2022/01/02 10:40:28;;;;;;;65.40;49.85;;;19.40;65.20;;;;;;5015590;27;90137;-66
2022/01/02 10:42:55;;;;;;;63.15;49.60;;;19.40;65.20;;;;;;5017088;27;89894;-67
2022/01/02 10:45:31;;;;;;;62.75;49.58;;;19.40;65.10;;;;;;5015446;27;90532;-67
2022/01/02 10:47:57;;;;;;;64.60;50.30;;;19.40;65.00;;;;;;5014379;27;90250;-67
2022/01/02 10:50:22;;;;;;;66.15;49.95;;;19.40;65.00;;;;;;5012077;27;90738;-67
2022/01/02 10:52:48;;;;;;;64.70;50.22;;;19.40;64.90;;;;;;4996317;27;89886;-66
2022/01/02 10:55:22;;;;;;;63.55;50.15;;;19.40;64.80;;;;;;5017583;27;90250;-64
2022/01/02 10:57:49;;;;;;;63.63;49.75;;;19.40;64.80;;;;;;5011181;27;90074;-66
2022/01/02 11:00:24;;;;;;;63.60;49.97;;;19.40;64.80;;;;;;5014912;27;91805;-66
2022/01/02 11:02:49;;;;;;;65.30;49.95;;;19.40;64.80;;;;;;5017467;27;89196;-66
2022/01/02 11:05:18;;;;;;;63.95;49.85;;;19.50;64.80;;;;;;5021923;27;91032;-66
2022/01/02 11:07:49;;;;;;;64.90;50.08;;;19.40;64.70;;;;;;5016029;27;89604;-66
2022/01/02 11:10:21;;;;;;;65.50;50.13;;;19.50;64.70;;;;;;5015354;27;92334;-66
2022/01/02 11:12:50;;;;;;;64.60;49.97;;;19.40;64.60;;;;;;5010674;27;91294;-66
2022/01/02 11:15:18;;;;;;;64.25;50.15;;;19.40;64.70;;;;;;5014896;27;91033;-66
2022/01/02 11:17:45;;;;;;;64.97;50.05;;;19.40;64.80;;;;;;5014644;27;90151;-66
2022/01/02 11:20:17;;;;;;;64.53;49.88;;;19.40;64.80;;;;;;5009647;27;89799;-66
2022/01/02 11:23:05;;;;;;;;;;;19.40;64.80;;;;;;5015154;27;91512;-66
2022/01/02 11:25:51;;;;;;;62.33;49.28;;;19.40;65.00;;;;;;4966519;27;89658;-66
2022/01/02 11:28:26;;;;;;;64.50;49.70;;;19.40;65.10;;;;;;5005215;27;90401;-66
2022/01/02 11:30:53;;;;;;;63.42;50.03;;;19.30;65.00;;;;;;5003147;27;89935;-67
2022/01/02 11:33:32;;;;;;;63.65;49.85;;;19.30;65.00;;;;;;5010701;27;90735;-67
2022/01/02 11:36:00;;;;;;;64.60;50.05;;;19.30;64.90;;;;;;5003820;27;90878;-67
2022/01/02 11:38:42;;;;;;;63.80;49.83;;;19.30;65.00;;;;;;5007939;27;90727;-67
2022/01/02 11:41:08;;;;;;;63.60;49.67;;;19.30;65.10;;;;;;5004084;27;90914;-68
2022/01/02 11:43:37;;;;;;;64.22;50.10;;;19.30;65.20;;;;;;5016205;27;90764;-67
2022/01/02 11:46:51;;;;;;;64.13;49.65;;;19.30;65.20;;;;;;5007617;27;89831;-67
2022/01/02 11:49:22;;;;;;;64.72;49.38;;;19.20;65.30;;;;;;5004787;27;90998;-67
2022/01/02 11:51:48;;;;;;;64.95;49.92;;;19.20;65.30;;;;;;5004418;27;91246;-68
2022/01/02 11:54:32;;;;;;;64.45;49.70;;;19.20;65.40;;;;;;5008343;27;90094;-67
2022/01/02 11:57:01;;;;;;;63.53;49.63;;;19.20;65.40;;;;;;4998369;27;94213;-67
2022/01/02 11:59:38;;;;;;;64.25;49.83;;;19.20;65.40;;;;;;5012264;27;91844;-68
2022/01/02 12:02:27;;;;;;;65.00;50.03;;;19.20;65.40;;;;;;5010690;27;92257;-67
2022/01/02 12:07:33;;;;;;;;;;;19.30;65.40;;;;;;5007402;27;89848;-68
2022/01/02 12:10:16;;;;;;;63.28;49.67;;;19.40;65.40;;;;;;5006610;27;91511;-67
2022/01/02 12:13:05;;;;;;;63.55;49.83;;;19.40;65.20;;;;;;5008566;27;90728;-67
2022/01/02 12:15:31;;;;;;;63.97;50.05;;;19.50;65.10;;;;;;5004434;27;91406;-67
2022/01/02 12:18:19;;;;;;;63.80;50.03;;;19.50;65.00;;;;;;4984094;27;89914;-67
2022/01/02 12:20:51;;;;;;;64.70;49.85;;;19.50;64.90;;;;;;5010272;27;94260;-68
2022/01/02 12:23:35;;;;;;;65.53;49.85;;;19.60;64.70;;;;;;5010852;27;90685;-67
2022/01/02 12:26:08;;;;;;;64.60;50.00;;;19.60;64.50;;;;;;5003027;27;93529;-67
2022/01/02 12:28:56;;;;;;;67.57;49.95;;;19.70;64.40;;;;;;5012330;27;91705;-68
2022/01/02 12:31:29;;;;;;;63.95;49.72;;;19.70;65.10;;;;;;4999412;27;91363;-67
2022/01/02 12:34:06;;;;;;;64.82;50.10;;;19.70;64.30;;;;;;5008988;27;90335;-66
2022/01/02 12:36:32;;;;;;;63.83;49.88;;;19.80;64.30;;;;;;5008373;27;99081;-66
2022/01/02 12:39:01;;;;;;;63.75;50.15;;;19.80;64.10;;;;;;5008078;27;90290;-66
2022/01/02 12:41:30;;;;;;;64.43;50.10;;;19.80;64.10;;;;;;5006827;27;90487;-65
2022/01/02 12:44:04;;;;;;;64.95;50.15;;;19.80;64.10;;;;;;5006786;27;90364;-66
2022/01/02 12:46:49;;;;;;;63.88;49.72;;;19.70;64.00;;;;;;5011345;27;90645;-66
2022/01/02 12:49:16;;;;;;;68.63;51.13;;;19.70;64.10;;;;;;4988226;27;90163;-66
2022/01/02 12:51:45;;;;;;;70.80;51.22;;;19.70;64.50;;;;;;5008768;27;90072;-66